createdAt,value
2022-12-05T00:00:37.219Z,8.26
2022-12-05T00:03:43.045Z,8.18
2022-12-05T00:06:48.692Z,8.24
2022-12-05T00:09:54.383Z,8.26
2022-12-05T00:13:00.460Z,8.27
2022-12-05T00:16:09.929Z,8.30
2022-12-05T00:19:15.939Z,8.32
2022-12-05T00:22:21.664Z,8.32
2022-12-05T00:25:27.534Z,8.21
2022-12-05T00:28:35.345Z,8.20
2022-12-05T00:31:42.055Z,8.01
2022-12-05T00:34:48.233Z,8.02
2022-12-05T00:37:53.948Z,8.08
2022-12-05T00:41:08.351Z,8.08
2022-12-05T00:44:14.363Z,8.02
2022-12-05T00:47:20.370Z,7.97
2022-12-05T00:50:26.332Z,7.99
2022-12-05T00:53:32.507Z,8.10
2022-12-05T00:56:38.374Z,8.01
2022-12-05T00:59:45.194Z,8.03
2022-12-05T01:02:51.066Z,8.02
2022-12-05T01:05:56.473Z,8.04
2022-12-05T01:09:01.891Z,8.03
2022-12-05T01:12:07.785Z,7.98
2022-12-05T01:15:13.298Z,8.03
2022-12-05T01:18:20.532Z,8.06
2022-12-05T01:21:26.771Z,8.01
2022-12-05T01:24:32.958Z,8.10
2022-12-05T01:27:38.780Z,8.05
2022-12-05T01:30:48.142Z,8.11
2022-12-05T01:33:55.908Z,8.06
2022-12-05T01:37:01.688Z,8.07
2022-12-05T01:40:08.491Z,8.16
2022-12-05T01:43:18.540Z,8.20
2022-12-05T01:46:25.753Z,8.23
2022-12-05T01:49:37.410Z,8.26
2022-12-05T01:52:42.387Z,8.21
2022-12-05T01:55:50.316Z,8.16
2022-12-05T01:58:56.287Z,8.31
2022-12-05T02:02:03.508Z,8.23
2022-12-05T02:05:17.512Z,8.22
2022-12-05T02:08:23.958Z,8.14
2022-12-05T02:11:33.899Z,8.19
2022-12-05T02:14:52.177Z,8.17
2022-12-05T02:18:19.333Z,8.13
2022-12-05T02:21:48.758Z,8.13
2022-12-05T02:24:54.377Z,8.12
2022-12-05T02:28:39.460Z,8.03
2022-12-05T02:31:52.962Z,8.08
2022-12-05T02:35:09.606Z,8.09
2022-12-05T02:38:27.077Z,8.20
2022-12-05T02:41:42.106Z,8.23
2022-12-05T02:44:56.837Z,8.26
2022-12-05T02:48:02.881Z,8.32
2022-12-05T02:51:10.668Z,8.26
2022-12-05T02:54:24.574Z,8.37
2022-12-05T02:57:31.964Z,8.35
2022-12-05T03:00:44.405Z,8.49
2022-12-05T03:03:50.103Z,8.50
2022-12-05T03:07:08.163Z,8.51
2022-12-05T03:10:16.955Z,8.55
2022-12-05T03:13:30.865Z,8.37
2022-12-05T03:16:48.451Z,8.50
2022-12-05T03:20:32.660Z,8.46
2022-12-05T03:23:48.854Z,8.50
2022-12-05T03:27:15.835Z,8.58
2022-12-05T03:30:24.264Z,8.49
2022-12-05T03:33:38.910Z,8.52
2022-12-05T03:36:53.357Z,8.55
2022-12-05T03:40:11.872Z,8.47
2022-12-05T03:43:53.179Z,8.56
2022-12-05T03:47:25.992Z,8.49
2022-12-05T03:50:36.142Z,8.49
2022-12-05T03:53:48.738Z,8.45
2022-12-05T03:57:04.209Z,8.55
2022-12-05T04:00:18.734Z,8.47
2022-12-05T04:03:40.049Z,8.45
2022-12-05T04:06:51.203Z,8.47
2022-12-05T04:10:01.134Z,8.55
2022-12-05T04:13:19.098Z,8.54
2022-12-05T04:17:03.445Z,8.57
2022-12-05T04:20:41.060Z,8.57
2022-12-05T04:24:07.660Z,8.49
2022-12-05T04:27:29.483Z,8.55
2022-12-05T04:30:39.624Z,8.47
2022-12-05T04:33:54.694Z,8.47
2022-12-05T04:37:12.042Z,8.49
2022-12-05T04:40:30.070Z,8.50
2022-12-05T04:43:40.882Z,8.59
2022-12-05T04:46:50.014Z,8.67
2022-12-05T04:49:57.451Z,8.77
2022-12-05T04:53:04.645Z,8.72
2022-12-05T04:56:13.290Z,8.73
2022-12-05T04:59:19.210Z,8.87
2022-12-05T05:03:01.399Z,8.75
2022-12-05T05:06:08.233Z,8.79
2022-12-05T05:09:14.060Z,8.80
2022-12-05T05:12:19.790Z,8.76
2022-12-05T05:15:25.807Z,8.74
2022-12-05T05:18:31.363Z,8.67
2022-12-05T05:21:41.604Z,8.69
2022-12-05T05:24:48.069Z,8.69
2022-12-05T05:27:56.073Z,8.70
2022-12-05T05:31:05.758Z,8.64
2022-12-05T05:34:12.765Z,8.66
2022-12-05T05:37:18.748Z,8.70
2022-12-05T05:40:24.271Z,8.79
2022-12-05T05:43:29.620Z,8.79
2022-12-05T05:46:37.311Z,8.80
2022-12-05T05:49:43.175Z,8.76
2022-12-05T05:52:49.210Z,8.81
2022-12-05T05:55:55.666Z,8.81
2022-12-05T05:59:04.129Z,8.67
2022-12-05T06:02:09.874Z,8.86
2022-12-05T06:05:15.510Z,8.68
2022-12-05T06:08:21.743Z,8.74
2022-12-05T06:11:29.509Z,8.66
2022-12-05T06:14:35.215Z,8.62
2022-12-05T06:17:41.223Z,8.64
2022-12-05T06:20:58.542Z,8.67
2022-12-05T06:24:03.980Z,8.73
2022-12-05T06:27:10.782Z,8.79
2022-12-05T06:30:16.878Z,8.76
2022-12-05T06:33:22.609Z,8.82
2022-12-05T06:36:29.917Z,8.78
2022-12-05T06:39:35.384Z,8.80
2022-12-05T06:42:40.993Z,8.83
2022-12-05T06:45:46.641Z,8.88
2022-12-05T06:48:57.468Z,8.91
2022-12-05T06:52:02.824Z,8.98
2022-12-05T06:55:08.715Z,9.02
2022-12-05T06:58:14.447Z,9.08
2022-12-05T07:01:42.050Z,9.05
2022-12-05T07:04:47.796Z,9.10
2022-12-05T07:07:53.767Z,9.05
2022-12-05T07:10:59.761Z,9.06
2022-12-05T07:14:10.675Z,9.09
2022-12-05T07:17:26.053Z,9.07
2022-12-05T07:21:03.423Z,9.19
2022-12-05T07:23:57.972Z,9.25
2022-12-05T07:27:03.381Z,9.32
2022-12-05T07:30:09.430Z,9.32
2022-12-05T07:33:15.674Z,9.32
2022-12-05T07:36:24.126Z,9.29
2022-12-05T07:39:30.037Z,9.36
2022-12-05T07:42:36.318Z,9.38
2022-12-05T07:45:41.913Z,9.45
2022-12-05T07:48:49.013Z,9.51
2022-12-05T07:51:54.343Z,9.48
2022-12-05T07:55:00.087Z,9.49
2022-12-05T07:58:06.028Z,9.50
2022-12-05T08:01:19.803Z,9.53
2022-12-05T08:04:25.923Z,9.53
2022-12-05T08:07:31.247Z,9.56
2022-12-05T08:10:36.624Z,9.64
2022-12-05T08:13:43.517Z,9.74
2022-12-05T08:16:49.143Z,9.72
2022-12-05T08:19:55.040Z,9.74
2022-12-05T08:23:01.623Z,9.69
2022-12-05T08:26:11.165Z,9.77
2022-12-05T08:29:16.848Z,9.85
2022-12-05T08:32:22.961Z,9.80
2022-12-05T08:35:29.469Z,9.91
2022-12-05T08:38:36.846Z,10.00
2022-12-05T08:41:44.491Z,9.95
2022-12-05T08:44:51.449Z,9.96
2022-12-05T08:47:57.765Z,9.96
2022-12-05T08:51:12.423Z,9.96
2022-12-05T08:54:18.736Z,9.93
2022-12-05T08:57:24.735Z,9.94
2022-12-05T09:00:30.431Z,9.93
2022-12-05T09:03:37.310Z,9.92
2022-12-05T09:06:43.281Z,9.92
2022-12-05T09:09:48.539Z,9.97
2022-12-05T09:12:54.469Z,9.90
2022-12-05T09:16:05.137Z,9.97
2022-12-05T09:19:17.094Z,10.06
2022-12-05T09:22:24.741Z,10.16
2022-12-05T09:25:30.569Z,10.28
2022-12-05T09:28:36.946Z,10.36
2022-12-05T09:31:43.607Z,10.34
2022-12-05T09:34:49.595Z,10.33
2022-12-05T09:37:57.609Z,10.28
2022-12-05T09:41:49.075Z,10.31
2022-12-05T09:45:07.233Z,10.33
2022-12-05T09:48:20.438Z,10.23
2022-12-05T09:51:28.067Z,10.28
2022-12-05T09:54:34.516Z,10.32
2022-12-05T09:57:50.397Z,10.40
2022-12-05T10:01:42.409Z,10.50
2022-12-05T10:05:08.954Z,10.44
2022-12-05T10:08:26.845Z,10.46
2022-12-05T10:11:49.780Z,10.42
2022-12-05T10:15:02.426Z,10.38
2022-12-05T10:18:13.886Z,10.45
2022-12-05T10:21:47.613Z,10.40
2022-12-05T10:24:56.931Z,10.38
2022-12-05T10:28:12.115Z,10.38
2022-12-05T10:31:22.202Z,10.37
2022-12-05T10:34:43.510Z,10.36
2022-12-05T10:38:03.598Z,10.44
2022-12-05T10:41:12.980Z,10.53
2022-12-05T10:44:19.388Z,10.59
2022-12-05T10:47:26.317Z,10.77
2022-12-05T10:50:38.986Z,10.63
2022-12-05T10:53:50.124Z,10.87
2022-12-05T10:56:57.394Z,11.08
2022-12-05T11:00:16.225Z,11.25
2022-12-05T11:03:26.101Z,11.39
2022-12-05T11:06:33.411Z,11.17
2022-12-05T11:09:40.068Z,11.11
2022-12-05T11:12:46.965Z,10.96
2022-12-05T11:15:55.622Z,10.79
2022-12-05T11:19:38.646Z,10.70
2022-12-05T11:22:48.865Z,10.54
2022-12-05T11:25:58.462Z,10.89
2022-12-05T11:29:05.600Z,11.57
2022-12-05T11:32:23.216Z,11.56
2022-12-05T11:35:29.749Z,11.30
2022-12-05T11:38:38.387Z,11.28
2022-12-05T11:42:03.355Z,11.27
2022-12-05T11:45:22.043Z,11.16
2022-12-05T11:49:02.989Z,10.92
2022-12-05T11:52:50.928Z,10.80
2022-12-05T11:56:28.346Z,10.86
2022-12-05T11:59:52.255Z,10.99
2022-12-05T12:03:32.743Z,11.13
2022-12-05T12:07:18.195Z,11.30
2022-12-05T12:10:29.710Z,11.23
2022-12-05T12:13:54.969Z,10.99
2022-12-05T12:17:01.326Z,11.03
2022-12-05T12:20:35.654Z,10.98
2022-12-05T12:24:01.518Z,10.93
2022-12-05T12:27:31.207Z,10.86
2022-12-05T12:31:02.894Z,10.88
2022-12-05T12:34:29.064Z,10.85
2022-12-05T12:38:03.387Z,10.85
2022-12-05T12:41:26.205Z,10.91
2022-12-05T12:44:59.815Z,10.86
2022-12-05T12:48:16.417Z,10.98
2022-12-05T12:51:22.053Z,11.08
2022-12-05T12:55:13.969Z,11.10
2022-12-05T12:58:52.328Z,11.03
2022-12-05T13:02:05.418Z,11.18
2022-12-05T13:05:20.079Z,11.16
2022-12-05T13:08:35.688Z,11.07
2022-12-05T13:11:45.140Z,10.94
2022-12-05T13:14:57.964Z,10.92
2022-12-05T13:18:07.077Z,10.93
2022-12-05T13:21:15.603Z,10.87
2022-12-05T13:24:48.272Z,10.96
2022-12-05T13:27:57.945Z,11.02
2022-12-05T13:31:06.987Z,11.01
2022-12-05T13:34:46.176Z,11.08
2022-12-05T13:38:10.134Z,11.10
2022-12-05T13:41:35.336Z,11.07
2022-12-05T13:44:49.063Z,11.09
2022-12-05T13:47:59.771Z,11.04
2022-12-05T13:51:33.299Z,11.01
2022-12-05T13:54:47.456Z,10.90
2022-12-05T13:58:15.456Z,10.85
2022-12-05T14:01:33.264Z,10.98
2022-12-05T14:04:51.181Z,10.82
2022-12-05T14:08:02.370Z,10.77
2022-12-05T14:11:12.121Z,10.91
2022-12-05T14:15:06.547Z,10.73
2022-12-05T14:18:45.078Z,10.82
2022-12-05T14:22:14.426Z,10.84
2022-12-05T14:25:33.284Z,10.73
2022-12-05T14:29:04.196Z,10.86
2022-12-05T14:32:14.776Z,10.91
2022-12-05T14:35:28.480Z,10.90
2022-12-05T14:38:38.228Z,10.83
2022-12-05T14:41:45.282Z,10.74
2022-12-05T14:44:54.395Z,10.81
2022-12-05T14:48:15.679Z,10.80
2022-12-05T14:51:32.813Z,10.79
2022-12-05T14:54:40.638Z,10.72
2022-12-05T14:57:49.846Z,10.62
2022-12-05T15:00:59.648Z,10.65
2022-12-05T15:04:26.232Z,10.72
2022-12-05T15:07:39.081Z,10.64
2022-12-05T15:10:46.109Z,10.66
2022-12-05T15:14:34.037Z,10.68
2022-12-05T15:17:50.630Z,10.67
2022-12-05T15:21:23.044Z,10.54
2022-12-05T15:24:39.048Z,10.51
2022-12-05T15:27:56.507Z,10.43
2022-12-05T15:31:02.154Z,10.46
2022-12-05T15:34:37.666Z,10.46
2022-12-05T15:37:54.438Z,10.31
2022-12-05T15:41:01.710Z,10.37
2022-12-05T15:44:08.287Z,10.27
2022-12-05T15:47:25.192Z,10.13
2022-12-05T15:50:44.670Z,10.16
2022-12-05T15:54:00.298Z,10.08
2022-12-05T15:57:29.929Z,9.94
2022-12-05T16:01:34.497Z,10.06
2022-12-05T16:05:01.463Z,10.10
2022-12-05T16:08:10.103Z,10.13
2022-12-05T16:11:18.862Z,10.16
2022-12-05T16:15:18.929Z,10.26
2022-12-05T16:18:50.385Z,10.14
2022-12-05T16:22:22.448Z,10.18
2022-12-05T16:25:35.536Z,10.16
2022-12-05T16:28:44.241Z,10.07
2022-12-05T16:31:58.619Z,9.96
2022-12-05T16:35:30.318Z,9.94
2022-12-05T16:38:42.243Z,10.13
2022-12-05T16:41:52.887Z,10.05
2022-12-05T16:45:04.185Z,10.03
2022-12-05T16:48:25.815Z,10.12
2022-12-05T16:51:42.507Z,10.20
2022-12-05T16:54:51.927Z,10.18
2022-12-05T16:57:59.787Z,10.07
2022-12-05T17:01:15.867Z,9.91
2022-12-05T17:04:31.001Z,10.08
2022-12-05T17:07:40.358Z,10.03
2022-12-05T17:10:49.515Z,10.03
2022-12-05T17:13:58.541Z,10.17
2022-12-05T17:17:13.342Z,10.05
2022-12-05T17:20:22.566Z,10.03
2022-12-05T17:23:30.347Z,9.93
2022-12-05T17:26:39.939Z,9.91
2022-12-05T17:29:49.374Z,9.96
2022-12-05T17:32:57.349Z,9.92
2022-12-05T17:36:07.072Z,9.99
2022-12-05T17:39:15.267Z,10.00
2022-12-05T17:42:23.582Z,10.06
2022-12-05T17:45:32.451Z,10.10
2022-12-05T17:48:40.382Z,10.06
2022-12-05T17:52:19.952Z,10.06
2022-12-05T17:55:44.662Z,9.98
2022-12-05T17:58:51.567Z,9.92
2022-12-05T18:01:59.003Z,9.98
2022-12-05T18:05:07.116Z,9.97
2022-12-05T18:08:17.364Z,9.94
2022-12-05T18:11:25.374Z,9.89
2022-12-05T18:14:37.113Z,9.94
2022-12-05T18:17:46.306Z,9.94
2022-12-05T18:20:53.388Z,9.92
2022-12-05T18:24:03.891Z,9.95
2022-12-05T18:27:13.198Z,9.93
2022-12-05T18:30:20.140Z,9.97
2022-12-05T18:33:28.181Z,9.89
2022-12-05T18:36:35.942Z,9.80
2022-12-05T18:39:43.581Z,9.69
2022-12-05T18:42:50.970Z,9.71
2022-12-05T18:46:01.077Z,9.69
2022-12-05T18:49:08.977Z,9.68
2022-12-05T18:52:17.386Z,9.76
2022-12-05T18:55:45.085Z,9.71
2022-12-05T18:59:01.110Z,9.74
2022-12-05T19:02:10.303Z,9.65
2022-12-05T19:05:17.901Z,9.69
2022-12-05T19:08:25.756Z,9.58
2022-12-05T19:11:34.579Z,9.52
2022-12-05T19:14:42.891Z,9.50
2022-12-05T19:17:50.973Z,9.44
2022-12-05T19:20:59.221Z,9.43
2022-12-05T19:24:09.838Z,9.29
2022-12-05T19:27:18.125Z,9.30
2022-12-05T19:30:25.814Z,9.25
2022-12-05T19:33:45.428Z,9.19
2022-12-05T19:36:54.185Z,9.22
2022-12-05T19:40:03.019Z,9.01
2022-12-05T19:43:11.806Z,9.06
2022-12-05T19:46:25.935Z,8.98
2022-12-05T19:49:34.930Z,9.02
2022-12-05T19:52:44.069Z,8.97
2022-12-05T19:56:00.722Z,9.03
2022-12-05T19:59:10.201Z,8.96
2022-12-05T20:02:17.088Z,9.08
2022-12-05T20:05:26.324Z,9.07
2022-12-05T20:08:37.187Z,9.10
2022-12-05T20:11:54.174Z,8.97
2022-12-05T20:15:04.052Z,8.93
2022-12-05T20:18:12.573Z,8.88
2022-12-05T20:21:24.905Z,8.79
2022-12-05T20:24:32.502Z,8.91
2022-12-05T20:27:41.560Z,8.97
2022-12-05T20:30:50.621Z,8.96
2022-12-05T20:33:59.584Z,9.10
2022-12-05T20:37:08.332Z,8.79
2022-12-05T20:40:17.206Z,8.87
2022-12-05T20:43:26.475Z,8.82
2022-12-05T20:46:37.491Z,8.77
2022-12-05T20:49:46.232Z,8.66
2022-12-05T20:52:54.451Z,8.60
2022-12-05T20:56:06.776Z,8.65
2022-12-05T20:59:15.688Z,8.53
2022-12-05T21:02:24.768Z,8.52
2022-12-05T21:05:35.416Z,8.50
2022-12-05T21:08:45.114Z,8.37
2022-12-05T21:11:56.766Z,8.51
2022-12-05T21:15:07.749Z,8.26
2022-12-05T21:18:16.637Z,8.09
2022-12-05T21:21:28.457Z,8.13
2022-12-05T21:24:37.806Z,8.14
2022-12-05T21:27:46.627Z,8.16
2022-12-05T21:30:55.527Z,8.18
2022-12-05T21:34:08.637Z,8.10
2022-12-05T21:37:17.123Z,8.07
2022-12-05T21:40:25.643Z,8.12
2022-12-05T21:43:37.286Z,8.14
2022-12-05T21:46:45.523Z,8.09
2022-12-05T21:49:55.871Z,8.13
2022-12-05T21:53:05.280Z,8.21
2022-12-05T21:56:17.562Z,8.21
2022-12-05T21:59:26.728Z,7.97
2022-12-05T22:02:35.373Z,7.95
2022-12-05T22:05:44.543Z,7.87
2022-12-05T22:08:56.668Z,7.93
2022-12-05T22:12:05.409Z,7.96
2022-12-05T22:15:14.417Z,7.90
2022-12-05T22:18:23.308Z,7.84
2022-12-05T22:21:34.398Z,7.68
2022-12-05T22:24:42.912Z,7.74
2022-12-05T22:27:51.886Z,7.65
2022-12-05T22:31:02.451Z,7.65
2022-12-05T22:34:10.940Z,7.57
2022-12-05T22:37:19.913Z,7.61
2022-12-05T22:40:26.790Z,7.55
2022-12-05T22:43:35.969Z,7.51
2022-12-05T22:46:43.917Z,7.45
2022-12-05T22:49:51.504Z,7.49
2022-12-05T22:53:00.718Z,7.52
2022-12-05T22:56:12.619Z,7.43
2022-12-05T22:59:21.179Z,7.37
2022-12-05T23:02:30.885Z,7.40
2022-12-05T23:05:50.002Z,7.33
2022-12-05T23:08:58.085Z,7.35
2022-12-05T23:12:07.523Z,7.26
2022-12-05T23:15:16.135Z,7.18
2022-12-05T23:18:25.085Z,7.08
2022-12-05T23:21:42.767Z,6.99
2022-12-05T23:24:51.812Z,7.15
2022-12-05T23:28:00.372Z,7.17
2022-12-05T23:31:10.963Z,7.16
2022-12-05T23:34:17.918Z,7.09
2022-12-05T23:37:24.493Z,7.04
2022-12-05T23:40:30.526Z,7.19
2022-12-05T23:43:39.322Z,7.17
2022-12-05T23:46:50.293Z,7.24
2022-12-05T23:49:56.749Z,7.25
2022-12-05T23:53:03.342Z,7.13
2022-12-05T23:56:20.913Z,7.40
2022-12-05T23:59:27.302Z,7.32
